CheckWX is a tool to help pilots better visualize weather data.  It is not intended as a substitute for an official pre-flight weather briefing.

19:40:55 UTC

KGMJ METAR
Grove Municipal Airport
Grove, Oklahoma, USA
Current

26 mins ago

KGMJ 261915Z AUTO 10007KT 10SM CLR 25/18 A3011 RMK AO2
Observed
May-26 @ 19:15 UTC
Wind
  • 100° at 7 KTS
Visibility
10 SM
Flight Rules
VFR
Cloud Levels
  • Clear skies
Temperature
25°C / 77°F
Dewpoint
18°C / 64°F
Humidity
65%
Altimeter
30.11" Hg
Pressure
1019.62 hPa
Previous

46 mins ago

KGMJ 261855Z AUTO 09006KT 10SM SCT100 SCT120 25/18 A3013 RMK AO2
Observed
May-26 @ 18:55 UTC
Wind
  • 090° at 6 KTS
Visibility
10 SM
Flight Rules
VFR
Cloud Levels
  • Scattered at 10,000' AGL
  • Scattered at 12,000' AGL
Temperature
25°C / 77°F
Dewpoint
18°C / 64°F
Humidity
65%
Altimeter
30.13" Hg
Pressure
1020.32 hPa
Previous

1 hour ago

KGMJ 261835Z AUTO 08006KT 10SM SCT100 23/18 A3015 RMK AO2
Observed
May-26 @ 18:35 UTC
Wind
  • 080° at 6 KTS
Visibility
10 SM
Flight Rules
VFR
Cloud Levels
  • Scattered at 10,000' AGL
Temperature
23°C / 73°F
Dewpoint
18°C / 64°F
Humidity
74%
Altimeter
30.15" Hg
Pressure
1021.02 hPa